Main page
METAR-TAF:

METAR-TAF

Airports :

Dubai International Airport

Dubai, United Arab Emirates

latitude: 25-15-10N, longitude: 055-21-52E, elevation: 8 m

Current weather observation

The report was made 36 minutes ago, at 03:00 UTC
Wind 1 kt from variable directions
Temperature 16°C
Humidity 63%
Pressure 1017 hPa
Visibility 10 km or more
no clouds below 1500 m and no cumulonimbus

METAR: OMDB 220300Z VRB01KT CAVOK 16/09 Q1017 NOSIG

Time: 07:36 (03:36 UTC)

Forecast

The report was made 4 hours and 44 minutes ago, at 22:52 UTC
Forecast valid from 22 at 00 UTC to 23 at 06 UTC
Wind 5 kt from the South/Southeast
Visibility 10 km or more
no clouds below 1500 m and no cumulonimbus
Becoming
from 22 at 06 UTC to 22 at 08 UTC
Wind 12 kt from the East
Probability 40%
from 22 at 10 UTC to 22 at 14 UTC
Wind 10 kt from the North
Becoming
from 23 at 03 UTC to 23 at 05 UTC
Wind 8 kt from the South/Southeast

TAF: OMDB 212252Z 2200/2306 16005KT CAVOK BECMG 2206/2208 10012KT PROB40 2210/2214 36010KT BECMG 2303/2305 16008KT

Weather observations and forecasts of more than 4000 airports (METAR and TAF reports).

The available stations are represented by yellow and red dots on the map.

Hover mouse over dot to see the name of the station.

Then click to see weather observations and forecasts.

To change the map : click on the green buttons with a black cross to zoom in, on the green button with a dash to zoom out, or on the green arrows for adjacent maps.


METAR-TAF: